Strona główna
METAR-TAF:

METAR-TAF

Lotnisko :

Port lotniczy Kokkola-Pietarsaari

Kokkola, Finlandia

Szerokość geograficzna: 63-43N, Długość geograficzna: 023-09E, wysokość: 25 m

Aktualna obserwacja pogody

Raport powstał 41 minut temu, godzina 20:20 UTC
Wiatr 4 kt od północ
Temperatura 8°C
Wilgotność 66%
Ciśnienie 1032 hPa
Widzialność 10 km lub więcej
Brak chmur poniżej 1500 m i brak chmur cumulonimbus

METAR: EFKK 302020Z AUTO 36004KT CAVOK 08/02 Q1032

czas: 00:01 (21:01 UTC)


TAF: brakujący

Obserwacja i prognoza pogody dla ponad 4000 lotnisk (raport METAR i TAF).

Dostępne stacje oznaczono żółtymi i czerwonymi punktami na mapie.

Najedź kursorem aby zobaczyć nazwę stacji.

Kliknij aby zobaczyć obserwacje i prognozy pogody.

Aby zmienić mapę: kliknij na zielony przycisk z czarnym krzyżykiem, aby powiększyć; na zielony przycisk z myślnikiem, aby pomniejszyć; na zielone strzałki, aby przejść do map sąsiednich.


METAR-TAF: